Air Navigation Services of Czech Republic
Airport: LKLN Updated:  23.05.2024 17:36:39  UTC
 METAR LKLN 23.05. 17:30 RRC
METAR LKLN 231730Z AUTO 05004KT 360V140 9999 SCT097 22/08 Q1014=